Bei Facebook empfehlenBei Twitter postenGoogle plusPinterest

Das Wetter im Erzgebirge am 10.12.2016

Wetter und Klima am 10.12.2016 Holzhau im Erzgebirge (630m ü.NN)
Letzte gemessene Temperatur und Uhrzeit der Messung23:45:00 Uhr4.10 °C
Temperatur (Maximum / Höchstwert) und Uhrzeit der Messung11:30:00 Uhr8.40 °C
Temperatur (Minimum / Tiefstwert) und Uhrzeit der Messung23:45:004.10 °C
Errechneter Absolutwert der Temperaturschwankungen zwischen Tmin und Tmax des Tages4.30 K
Errechnete Tagesmitteltemperatur5.84792 °C
Gesamt - Niederschlag des Tages (in flüssiger Form)0.00 Liter / m²
Luftdruck (Maximum / Höchstwert) und Zeitpunkt der Messung00:00:00 Uhr1022.10 hPa
Luftdruck (Minimum / Tiefstwert) und Zeitpunkt der Messung23:45:00 Uhr1015.60 hPa
Errechneter Absolutwert der Luftdruckschwankungen des Tages6.50 hPa
Höchste gemessene Windgeschwindigkeit und Uhrzeit der Messung23:45:00 Uhr0.00 km/h
Errechnete Windhäufigkeit in Relation zu den Messwerten des Tages0.00000 %
Niedrigste Windkühle (Windchill) und Zeitpunkt der Messung23:45:00 Uhr4.10 °C
Taupunkt (Maximum / Höchstwert) und Uhrzeit der Messung11:30:00 Uhr8.00 °C
Taupunkt (Minimum / Tiefstwert) und Uhrzeit der Messung22:15:002.20 °C
Anzahl der automatisch eingelesenen Messwerte 96

Detaillierte Wetter- und Klima- Messwerte für den 10.12.2016 in Holzhau im Erzgebirge (630m ü.NN)
ZeitTemperaturLuftdruckRel. LuftfeuchteWindWindrichtungWindchillTaupunktNiederschlag l/m²
23:45:004.10 °C1015.60 hPa88.00 %2.30 °C 
23:30:004.20 °C1015.80 hPa88.00 %2.40 °C 
23:15:004.40 °C1015.90 hPa88.00 %2.60 °C 
23:00:004.30 °C1016.10 hPa88.00 %2.50 °C 
22:45:004.20 °C1016.20 hPa88.00 %2.40 °C 
22:30:004.10 °C1016.30 hPa88.00 %2.30 °C 
22:15:004.20 °C1016.20 hPa87.00 %2.20 °C 
22:00:004.40 °C1016.50 hPa87.00 %2.40 °C 
21:45:004.50 °C1016.60 hPa87.00 %2.50 °C 
21:30:004.90 °C1016.60 hPa87.00 %2.90 °C 
21:15:005.10 °C1017.00 hPa87.00 %3.10 °C 
21:00:005.20 °C1016.90 hPa87.00 %3.20 °C 
20:45:005.30 °C1016.90 hPa87.00 %3.30 °C 
20:30:005.20 °C1016.80 hPa87.00 %3.20 °C 
20:15:005.30 °C1017.00 hPa87.00 %3.30 °C 
20:00:005.40 °C1017.20 hPa87.00 %3.40 °C 
19:45:005.50 °C1017.40 hPa88.00 %3.70 °C 
19:30:005.60 °C1017.50 hPa88.00 %3.80 °C 
19:15:005.80 °C1017.50 hPa89.00 %4.10 °C 
19:00:005.80 °C1017.60 hPa89.00 %4.10 °C 
18:45:005.80 °C1017.60 hPa89.00 %4.10 °C 
18:30:005.80 °C1017.60 hPa88.00 %4.00 °C 
18:15:005.70 °C1017.90 hPa88.00 %3.90 °C 
18:00:006.10 °C1017.90 hPa87.00 %4.10 °C 
17:45:006.40 °C1017.90 hPa88.00 %4.60 °C 
17:30:006.40 °C1018.00 hPa87.00 %4.40 °C 
17:15:006.30 °C1018.10 hPa87.00 %4.30 °C 
17:00:006.30 °C1018.20 hPa87.00 %4.30 °C 
16:45:006.30 °C1018.00 hPa86.00 %4.10 °C 
16:30:006.40 °C1017.90 hPa86.00 %4.20 °C 
16:15:006.50 °C1017.90 hPa86.00 %4.30 °C 
16:00:006.40 °C1017.80 hPa86.00 %4.20 °C 
15:45:006.20 °C1017.90 hPa85.00 %3.90 °C 
15:30:006.50 °C1017.90 hPa85.00 %4.20 °C 
15:15:007.00 °C1017.60 hPa85.00 %4.70 °C 
15:00:007.20 °C1017.50 hPa87.00 %5.20 °C 
14:45:006.90 °C1017.50 hPa88.00 %5.10 °C 
14:30:006.40 °C1017.50 hPa89.00 %4.70 °C 
14:15:006.30 °C1017.60 hPa89.00 %4.60 °C 
14:00:006.60 °C1017.70 hPa89.00 %4.90 °C 
13:45:006.90 °C1017.90 hPa90.00 %5.40 °C 
13:30:007.30 °C1017.90 hPa90.00 %5.80 °C 
13:15:007.60 °C1017.80 hPa92.00 %6.40 °C 
13:00:007.90 °C1017.90 hPa93.00 %6.80 °C 
12:45:008.10 °C1018.30 hPa95.00 %7.30 °C 
12:30:008.20 °C1018.10 hPa96.00 %7.60 °C 
12:15:008.10 °C1018.40 hPa97.00 %7.70 °C 
12:00:008.00 °C1018.40 hPa97.00 %7.60 °C 
11:45:008.10 °C1018.60 hPa97.00 %7.70 °C 
11:30:008.40 °C1018.80 hPa97.00 %8.00 °C 
11:15:008.20 °C1018.80 hPa97.00 %7.80 °C 
11:00:007.30 °C1018.90 hPa97.00 %6.90 °C 
10:45:007.20 °C1019.10 hPa97.00 %6.80 °C 
10:30:007.20 °C1019.40 hPa97.00 %6.80 °C 
10:15:007.10 °C1019.40 hPa97.00 %6.70 °C 
10:00:006.70 °C1019.50 hPa97.00 %6.30 °C 
09:45:006.10 °C1019.40 hPa97.00 %5.70 °C 
09:30:005.60 °C1019.50 hPa97.00 %5.20 °C 
09:15:005.20 °C1019.50 hPa97.00 %4.80 °C 
09:00:004.80 °C1019.60 hPa97.00 %4.40 °C 
08:45:004.50 °C1019.60 hPa97.00 %4.10 °C 
08:30:004.40 °C1019.60 hPa97.00 %4.00 °C 
08:15:004.40 °C1019.70 hPa97.00 %4.00 °C 
08:00:004.40 °C1019.60 hPa97.00 %4.00 °C 
07:45:004.60 °C1019.50 hPa97.00 %4.20 °C 
07:30:004.80 °C1019.60 hPa97.00 %4.40 °C 
07:15:004.90 °C1019.70 hPa97.00 %4.50 °C 
07:00:005.10 °C1019.90 hPa97.00 %4.70 °C 
06:45:005.00 °C1019.70 hPa97.00 %4.60 °C 
06:30:004.90 °C1019.70 hPa97.00 %4.50 °C 
06:15:004.80 °C1019.80 hPa97.00 %4.40 °C 
06:00:004.80 °C1019.80 hPa97.00 %4.40 °C 
05:45:004.70 °C1020.10 hPa97.00 %4.30 °C 
05:30:004.80 °C1020.10 hPa97.00 %4.40 °C 
05:15:004.90 °C1020.20 hPa97.00 %4.50 °C 
05:00:004.90 °C1020.10 hPa97.00 %4.50 °C 
04:45:005.10 °C1020.30 hPa97.00 %4.70 °C 
04:30:005.30 °C1020.40 hPa97.00 %4.90 °C 
04:15:005.40 °C1020.60 hPa97.00 %5.00 °C 
04:00:005.90 °C1020.60 hPa97.00 %5.50 °C 
03:45:006.30 °C1020.80 hPa97.00 %5.90 °C 
03:30:006.50 °C1020.80 hPa97.00 %6.10 °C 
03:15:006.50 °C1020.80 hPa97.00 %6.10 °C 
03:00:006.40 °C1021.00 hPa97.00 %6.00 °C 
02:45:006.20 °C1021.10 hPa97.00 %5.80 °C 
02:30:006.10 °C1021.20 hPa97.00 %5.70 °C 
02:15:006.10 °C1021.30 hPa97.00 %5.70 °C 
02:00:005.90 °C1021.20 hPa97.00 %5.50 °C 
01:45:005.90 °C1021.30 hPa97.00 %5.50 °C 
01:30:006.00 °C1021.20 hPa97.00 %5.60 °C 
01:15:006.10 °C1021.10 hPa97.00 %5.70 °C 
01:00:005.90 °C1021.40 hPa97.00 %5.50 °C 
00:45:005.80 °C1021.60 hPa97.00 %5.40 °C 
00:30:005.40 °C1021.80 hPa97.00 %5.00 °C 
00:15:005.10 °C1021.80 hPa97.00 %4.70 °C 
00:00:004.60 °C1022.10 hPa97.00 %4.20 °C 

Permanenter Link zu dieser Seite: Wetter im Erzgebirge am 10.12.2016
Performance-Info: Die Erstellung der Seite / Statistik(en) / Tabelle(n) erforderte 5 Datenbankserver-Abfrage(n) und dauerte 102 Millisekunden. (Dieser Messwert ist von der Gesamt-Auslastung des Servers abhängig.)
Erzgebirge - Wetter | Erzgebirge - Wetter (Mobilgeräte) | Komplette Klimadatenbank